sensor_id;sensor_type;location;lat;lon;timestamp;P1;durP1;ratioP1;P2;durP2;ratioP2
28960;SDS011;16068;42.896;20.868;2023-12-29T00:01:35;56.42;;;29.73;;
28960;SDS011;16068;42.896;20.868;2023-12-29T00:04:23;54.55;;;30.80;;
28960;SDS011;16068;42.896;20.868;2023-12-29T00:07:12;62.90;;;32.50;;
28960;SDS011;16068;42.896;20.868;2023-12-29T00:09:59;60.55;;;31.48;;
28960;SDS011;16068;42.896;20.868;2023-12-29T00:12:47;61.25;;;32.25;;
28960;SDS011;16068;42.896;20.868;2023-12-29T00:15:36;64.82;;;31.98;;
28960;SDS011;16068;42.896;20.868;2023-12-29T00:18:24;53.00;;;29.95;;
28960;SDS011;16068;42.896;20.868;2023-12-29T00:21:13;47.53;;;25.83;;
28960;SDS011;16068;42.896;20.868;2023-12-29T00:24:05;43.45;;;24.17;;
28960;SDS011;16068;42.896;20.868;2023-12-29T00:26:53;43.20;;;23.10;;
28960;SDS011;16068;42.896;20.868;2023-12-29T00:29:41;41.67;;;21.48;;
28960;SDS011;16068;42.896;20.868;2023-12-29T00:32:28;39.83;;;20.95;;
28960;SDS011;16068;42.896;20.868;2023-12-29T00:35:17;41.20;;;21.33;;
28960;SDS011;16068;42.896;20.868;2023-12-29T00:38:06;36.45;;;20.40;;
28960;SDS011;16068;42.896;20.868;2023-12-29T00:40:58;38.40;;;20.10;;
28960;SDS011;16068;42.896;20.868;2023-12-29T00:43:46;40.67;;;21.27;;
28960;SDS011;16068;42.896;20.868;2023-12-29T00:46:35;40.40;;;20.73;;
28960;SDS011;16068;42.896;20.868;2023-12-29T00:49:25;41.95;;;23.40;;
28960;SDS011;16068;42.896;20.868;2023-12-29T00:52:13;41.22;;;22.77;;
28960;SDS011;16068;42.896;20.868;2023-12-29T00:55:02;41.03;;;24.00;;
28960;SDS011;16068;42.896;20.868;2023-12-29T00:57:50;42.55;;;23.65;;
28960;SDS011;16068;42.896;20.868;2023-12-29T01:00:37;40.38;;;23.10;;
28960;SDS011;16068;42.896;20.868;2023-12-29T01:03:25;38.55;;;22.25;;
28960;SDS011;16068;42.896;20.868;2023-12-29T01:06:14;41.10;;;22.42;;
28960;SDS011;16068;42.896;20.868;2023-12-29T01:09:01;42.83;;;20.55;;
28960;SDS011;16068;42.896;20.868;2023-12-29T01:11:49;33.50;;;19.13;;
28960;SDS011;16068;42.896;20.868;2023-12-29T01:14:37;31.13;;;18.23;;
28960;SDS011;16068;42.896;20.868;2023-12-29T01:17:25;36.17;;;18.25;;
28960;SDS011;16068;42.896;20.868;2023-12-29T01:20:14;34.08;;;19.92;;
28960;SDS011;16068;42.896;20.868;2023-12-29T01:23:04;38.17;;;20.30;;
28960;SDS011;16068;42.896;20.868;2023-12-29T01:25:51;39.72;;;19.77;;
28960;SDS011;16068;42.896;20.868;2023-12-29T01:28:39;38.20;;;18.27;;
28960;SDS011;16068;42.896;20.868;2023-12-29T01:31:30;31.27;;;17.23;;
28960;SDS011;16068;42.896;20.868;2023-12-29T01:34:19;32.28;;;17.45;;
28960;SDS011;16068;42.896;20.868;2023-12-29T01:37:06;34.83;;;18.73;;
28960;SDS011;16068;42.896;20.868;2023-12-29T01:39:55;28.45;;;16.15;;
28960;SDS011;16068;42.896;20.868;2023-12-29T01:42:43;36.72;;;17.60;;
28960;SDS011;16068;42.896;20.868;2023-12-29T01:45:30;36.00;;;18.83;;
28960;SDS011;16068;42.896;20.868;2023-12-29T01:48:30;29.48;;;16.98;;
28960;SDS011;16068;42.896;20.868;2023-12-29T01:51:20;29.92;;;17.15;;
28960;SDS011;16068;42.896;20.868;2023-12-29T01:54:10;29.67;;;16.23;;
28960;SDS011;16068;42.896;20.868;2023-12-29T01:57:00;32.25;;;16.85;;
28960;SDS011;16068;42.896;20.868;2023-12-29T01:59:48;29.95;;;17.10;;
28960;SDS011;16068;42.896;20.868;2023-12-29T02:02:38;32.78;;;17.00;;
28960;SDS011;16068;42.896;20.868;2023-12-29T02:05:26;37.88;;;18.27;;
28960;SDS011;16068;42.896;20.868;2023-12-29T02:08:14;32.30;;;18.23;;
28960;SDS011;16068;42.896;20.868;2023-12-29T02:11:03;31.30;;;18.38;;
28960;SDS011;16068;42.896;20.868;2023-12-29T02:13:52;32.28;;;17.80;;
28960;SDS011;16068;42.896;20.868;2023-12-29T02:19:40;31.63;;;17.08;;
28960;SDS011;16068;42.896;20.868;2023-12-29T02:22:31;30.88;;;16.73;;
28960;SDS011;16068;42.896;20.868;2023-12-29T02:25:19;30.80;;;16.92;;
28960;SDS011;16068;42.896;20.868;2023-12-29T02:28:15;31.83;;;18.80;;
28960;SDS011;16068;42.896;20.868;2023-12-29T02:31:16;54.17;;;18.40;;
28960;SDS011;16068;42.896;20.868;2023-12-29T02:34:07;30.23;;;17.27;;
28960;SDS011;16068;42.896;20.868;2023-12-29T02:37:05;51.00;;;15.40;;
28960;SDS011;16068;42.896;20.868;2023-12-29T02:39:53;25.75;;;15.07;;
28960;SDS011;16068;42.896;20.868;2023-12-29T02:42:48;25.98;;;15.02;;
28960;SDS011;16068;42.896;20.868;2023-12-29T02:45:39;27.17;;;14.88;;
28960;SDS011;16068;42.896;20.868;2023-12-29T02:48:32;21.90;;;13.55;;
28960;SDS011;16068;42.896;20.868;2023-12-29T02:51:23;25.88;;;14.40;;
28960;SDS011;16068;42.896;20.868;2023-12-29T02:54:11;25.55;;;14.77;;
28960;SDS011;16068;42.896;20.868;2023-12-29T02:56:59;27.02;;;14.57;;
28960;SDS011;16068;42.896;20.868;2023-12-29T02:59:47;24.52;;;14.95;;
28960;SDS011;16068;42.896;20.868;2023-12-29T03:02:35;28.98;;;14.80;;
28960;SDS011;16068;42.896;20.868;2023-12-29T03:05:23;26.98;;;13.80;;
28960;SDS011;16068;42.896;20.868;2023-12-29T03:08:11;27.17;;;14.25;;
28960;SDS011;16068;42.896;20.868;2023-12-29T03:10:58;26.38;;;14.60;;
28960;SDS011;16068;42.896;20.868;2023-12-29T03:13:46;28.63;;;14.55;;
28960;SDS011;16068;42.896;20.868;2023-12-29T03:16:34;26.40;;;14.60;;
28960;SDS011;16068;42.896;20.868;2023-12-29T03:19:24;31.13;;;15.00;;
28960;SDS011;16068;42.896;20.868;2023-12-29T03:22:12;30.00;;;15.32;;
28960;SDS011;16068;42.896;20.868;2023-12-29T03:25:00;28.13;;;15.82;;
28960;SDS011;16068;42.896;20.868;2023-12-29T03:27:48;28.85;;;15.40;;
28960;SDS011;16068;42.896;20.868;2023-12-29T03:30:36;32.50;;;16.95;;
28960;SDS011;16068;42.896;20.868;2023-12-29T03:33:28;28.50;;;15.68;;
28960;SDS011;16068;42.896;20.868;2023-12-29T03:36:18;32.30;;;16.90;;
28960;SDS011;16068;42.896;20.868;2023-12-29T03:39:08;60.75;;;15.32;;
28960;SDS011;16068;42.896;20.868;2023-12-29T03:41:55;29.00;;;16.17;;
28960;SDS011;16068;42.896;20.868;2023-12-29T03:44:43;65.60;;;34.00;;
28960;SDS011;16068;42.896;20.868;2023-12-29T03:47:31;87.28;;;45.45;;
28960;SDS011;16068;42.896;20.868;2023-12-29T03:50:19;95.82;;;48.83;;
28960;SDS011;16068;42.896;20.868;2023-12-29T03:53:07;180.18;;;47.80;;
28960;SDS011;16068;42.896;20.868;2023-12-29T03:55:57;106.50;;;50.33;;
28960;SDS011;16068;42.896;20.868;2023-12-29T03:58:49;100.30;;;46.45;;
28960;SDS011;16068;42.896;20.868;2023-12-29T04:01:35;94.50;;;47.85;;
28960;SDS011;16068;42.896;20.868;2023-12-29T04:04:22;110.68;;;49.20;;
28960;SDS011;16068;42.896;20.868;2023-12-29T04:07:09;137.13;;;44.90;;
28960;SDS011;16068;42.896;20.868;2023-12-29T04:10:00;90.45;;;45.25;;
28960;SDS011;16068;42.896;20.868;2023-12-29T04:12:47;89.15;;;42.28;;
28960;SDS011;16068;42.896;20.868;2023-12-29T04:15:33;96.35;;;45.47;;
28960;SDS011;16068;42.896;20.868;2023-12-29T04:18:22;98.80;;;44.78;;
28960;SDS011;16068;42.896;20.868;2023-12-29T04:21:15;94.75;;;43.53;;
28960;SDS011;16068;42.896;20.868;2023-12-29T04:24:03;80.07;;;41.60;;
28960;SDS011;16068;42.896;20.868;2023-12-29T04:26:51;69.55;;;37.58;;
28960;SDS011;16068;42.896;20.868;2023-12-29T04:29:39;122.90;;;41.83;;
28960;SDS011;16068;42.896;20.868;2023-12-29T04:32:27;118.60;;;40.85;;
28960;SDS011;16068;42.896;20.868;2023-12-29T04:35:15;189.32;;;41.10;;
28960;SDS011;16068;42.896;20.868;2023-12-29T04:38:04;143.07;;;41.92;;
28960;SDS011;16068;42.896;20.868;2023-12-29T04:40:52;92.30;;;41.30;;
28960;SDS011;16068;42.896;20.868;2023-12-29T04:43:40;91.80;;;41.78;;
28960;SDS011;16068;42.896;20.868;2023-12-29T04:46:28;82.25;;;41.17;;
28960;SDS011;16068;42.896;20.868;2023-12-29T04:49:15;77.25;;;41.50;;
28960;SDS011;16068;42.896;20.868;2023-12-29T04:52:03;86.95;;;44.55;;
28960;SDS011;16068;42.896;20.868;2023-12-29T04:54:52;97.63;;;47.75;;
28960;SDS011;16068;42.896;20.868;2023-12-29T04:57:42;95.90;;;45.10;;
28960;SDS011;16068;42.896;20.868;2023-12-29T05:00:29;93.95;;;45.00;;
28960;SDS011;16068;42.896;20.868;2023-12-29T05:03:18;87.80;;;45.88;;
28960;SDS011;16068;42.896;20.868;2023-12-29T05:06:06;96.90;;;46.05;;
28960;SDS011;16068;42.896;20.868;2023-12-29T05:08:53;131.50;;;43.47;;
28960;SDS011;16068;42.896;20.868;2023-12-29T05:11:41;117.00;;;44.85;;
28960;SDS011;16068;42.896;20.868;2023-12-29T05:14:31;104.78;;;40.28;;
28960;SDS011;16068;42.896;20.868;2023-12-29T05:17:19;69.72;;;34.20;;
28960;SDS011;16068;42.896;20.868;2023-12-29T05:20:07;65.68;;;27.98;;
28960;SDS011;16068;42.896;20.868;2023-12-29T05:22:55;56.00;;;26.60;;
28960;SDS011;16068;42.896;20.868;2023-12-29T05:25:43;41.85;;;22.23;;
28960;SDS011;16068;42.896;20.868;2023-12-29T05:28:32;47.63;;;22.50;;
28960;SDS011;16068;42.896;20.868;2023-12-29T05:31:20;42.60;;;20.88;;
28960;SDS011;16068;42.896;20.868;2023-12-29T05:34:07;63.00;;;18.02;;
28960;SDS011;16068;42.896;20.868;2023-12-29T05:36:56;60.28;;;17.88;;
28960;SDS011;16068;42.896;20.868;2023-12-29T05:39:44;33.55;;;17.35;;
28960;SDS011;16068;42.896;20.868;2023-12-29T05:42:32;58.25;;;15.63;;
28960;SDS011;16068;42.896;20.868;2023-12-29T05:45:20;42.75;;;15.43;;
28960;SDS011;16068;42.896;20.868;2023-12-29T05:48:08;27.77;;;15.55;;
28960;SDS011;16068;42.896;20.868;2023-12-29T05:50:57;43.22;;;16.15;;
28960;SDS011;16068;42.896;20.868;2023-12-29T05:53:44;29.55;;;15.43;;
28960;SDS011;16068;42.896;20.868;2023-12-29T05:56:32;34.40;;;13.93;;
28960;SDS011;16068;42.896;20.868;2023-12-29T05:59:19;32.58;;;14.43;;
28960;SDS011;16068;42.896;20.868;2023-12-29T06:02:07;32.08;;;14.55;;
28960;SDS011;16068;42.896;20.868;2023-12-29T06:04:53;37.50;;;14.57;;
28960;SDS011;16068;42.896;20.868;2023-12-29T06:07:39;29.17;;;13.88;;
28960;SDS011;16068;42.896;20.868;2023-12-29T06:10:25;46.90;;;15.32;;
28960;SDS011;16068;42.896;20.868;2023-12-29T06:13:11;28.85;;;14.73;;
28960;SDS011;16068;42.896;20.868;2023-12-29T06:15:58;32.72;;;16.55;;
28960;SDS011;16068;42.896;20.868;2023-12-29T06:18:44;40.28;;;17.52;;
28960;SDS011;16068;42.896;20.868;2023-12-29T06:21:30;50.42;;;22.20;;
28960;SDS011;16068;42.896;20.868;2023-12-29T06:24:16;64.68;;;17.58;;
28960;SDS011;16068;42.896;20.868;2023-12-29T06:27:02;39.65;;;16.00;;
28960;SDS011;16068;42.896;20.868;2023-12-29T06:29:49;46.83;;;16.73;;
28960;SDS011;16068;42.896;20.868;2023-12-29T06:32:36;26.27;;;13.43;;
28960;SDS011;16068;42.896;20.868;2023-12-29T06:35:22;33.83;;;14.30;;
28960;SDS011;16068;42.896;20.868;2023-12-29T06:38:09;32.28;;;14.68;;
28960;SDS011;16068;42.896;20.868;2023-12-29T06:40:55;35.35;;;15.55;;
28960;SDS011;16068;42.896;20.868;2023-12-29T06:43:41;29.83;;;15.63;;
28960;SDS011;16068;42.896;20.868;2023-12-29T06:46:27;36.50;;;15.02;;
28960;SDS011;16068;42.896;20.868;2023-12-29T06:49:14;32.72;;;15.27;;
28960;SDS011;16068;42.896;20.868;2023-12-29T06:52:00;29.88;;;15.18;;
28960;SDS011;16068;42.896;20.868;2023-12-29T06:54:46;27.70;;;14.68;;
28960;SDS011;16068;42.896;20.868;2023-12-29T06:57:32;35.95;;;13.68;;
28960;SDS011;16068;42.896;20.868;2023-12-29T07:00:18;36.22;;;15.38;;
28960;SDS011;16068;42.896;20.868;2023-12-29T07:03:04;30.77;;;15.60;;
28960;SDS011;16068;42.896;20.868;2023-12-29T07:05:50;29.83;;;14.65;;
28960;SDS011;16068;42.896;20.868;2023-12-29T07:08:36;30.83;;;16.27;;
28960;SDS011;16068;42.896;20.868;2023-12-29T07:11:22;32.33;;;15.30;;
28960;SDS011;16068;42.896;20.868;2023-12-29T07:14:08;55.42;;;15.57;;
28960;SDS011;16068;42.896;20.868;2023-12-29T07:16:54;38.92;;;16.38;;
28960;SDS011;16068;42.896;20.868;2023-12-29T07:19:40;58.50;;;14.18;;
28960;SDS011;16068;42.896;20.868;2023-12-29T07:22:26;123.13;;;27.35;;
28960;SDS011;16068;42.896;20.868;2023-12-29T07:25:13;33.97;;;16.50;;
28960;SDS011;16068;42.896;20.868;2023-12-29T07:27:59;38.50;;;16.65;;
28960;SDS011;16068;42.896;20.868;2023-12-29T07:30:47;32.70;;;14.35;;
28960;SDS011;16068;42.896;20.868;2023-12-29T07:33:33;28.27;;;14.07;;
28960;SDS011;16068;42.896;20.868;2023-12-29T07:36:19;28.73;;;15.13;;
28960;SDS011;16068;42.896;20.868;2023-12-29T07:39:05;37.22;;;15.00;;
28960;SDS011;16068;42.896;20.868;2023-12-29T07:41:53;41.72;;;22.48;;
28960;SDS011;16068;42.896;20.868;2023-12-29T07:44:41;53.33;;;24.45;;
28960;SDS011;16068;42.896;20.868;2023-12-29T07:47:27;77.93;;;37.97;;
28960;SDS011;16068;42.896;20.868;2023-12-29T07:50:13;28.55;;;15.63;;
28960;SDS011;16068;42.896;20.868;2023-12-29T07:52:59;27.23;;;13.55;;
28960;SDS011;16068;42.896;20.868;2023-12-29T07:55:49;25.30;;;14.15;;
28960;SDS011;16068;42.896;20.868;2023-12-29T07:58:38;75.35;;;38.17;;
28960;SDS011;16068;42.896;20.868;2023-12-29T08:01:27;124.70;;;56.85;;
28960;SDS011;16068;42.896;20.868;2023-12-29T08:04:14;101.03;;;48.88;;
28960;SDS011;16068;42.896;20.868;2023-12-29T08:07:00;34.78;;;17.20;;
28960;SDS011;16068;42.896;20.868;2023-12-29T08:09:46;27.35;;;14.23;;
28960;SDS011;16068;42.896;20.868;2023-12-29T08:12:32;33.03;;;15.95;;
28960;SDS011;16068;42.896;20.868;2023-12-29T08:15:21;44.55;;;19.45;;
28960;SDS011;16068;42.896;20.868;2023-12-29T08:18:07;24.20;;;13.20;;
28960;SDS011;16068;42.896;20.868;2023-12-29T08:20:54;22.52;;;12.65;;
28960;SDS011;16068;42.896;20.868;2023-12-29T08:23:40;25.92;;;13.25;;
28960;SDS011;16068;42.896;20.868;2023-12-29T08:26:25;24.90;;;11.93;;
28960;SDS011;16068;42.896;20.868;2023-12-29T08:29:12;18.52;;;11.63;;
28960;SDS011;16068;42.896;20.868;2023-12-29T08:32:00;21.20;;;10.93;;
28960;SDS011;16068;42.896;20.868;2023-12-29T08:34:47;21.58;;;12.52;;
28960;SDS011;16068;42.896;20.868;2023-12-29T08:37:33;28.65;;;14.60;;
28960;SDS011;16068;42.896;20.868;2023-12-29T08:40:20;30.42;;;17.00;;
28960;SDS011;16068;42.896;20.868;2023-12-29T08:43:05;21.15;;;11.55;;
28960;SDS011;16068;42.896;20.868;2023-12-29T08:45:52;18.83;;;11.32;;
28960;SDS011;16068;42.896;20.868;2023-12-29T08:48:38;22.45;;;11.85;;
28960;SDS011;16068;42.896;20.868;2023-12-29T08:51:24;32.75;;;14.23;;
28960;SDS011;16068;42.896;20.868;2023-12-29T08:54:10;21.02;;;12.93;;
28960;SDS011;16068;42.896;20.868;2023-12-29T08:56:56;27.73;;;13.52;;
28960;SDS011;16068;42.896;20.868;2023-12-29T08:59:42;21.13;;;12.38;;
28960;SDS011;16068;42.896;20.868;2023-12-29T09:02:28;25.00;;;13.18;;
28960;SDS011;16068;42.896;20.868;2023-12-29T09:05:14;24.23;;;12.13;;
28960;SDS011;16068;42.896;20.868;2023-12-29T09:08:00;29.13;;;13.93;;
28960;SDS011;16068;42.896;20.868;2023-12-29T09:10:47;20.98;;;12.50;;
28960;SDS011;16068;42.896;20.868;2023-12-29T09:13:33;25.05;;;13.15;;
28960;SDS011;16068;42.896;20.868;2023-12-29T09:16:19;25.70;;;14.20;;
28960;SDS011;16068;42.896;20.868;2023-12-29T09:19:05;23.55;;;13.50;;
28960;SDS011;16068;42.896;20.868;2023-12-29T09:22:11;21.80;;;12.35;;
28960;SDS011;16068;42.896;20.868;2023-12-29T09:24:57;28.52;;;15.85;;
28960;SDS011;16068;42.896;20.868;2023-12-29T09:27:43;31.45;;;15.52;;
28960;SDS011;16068;42.896;20.868;2023-12-29T09:30:30;36.92;;;14.15;;
28960;SDS011;16068;42.896;20.868;2023-12-29T09:33:16;27.63;;;16.63;;
28960;SDS011;16068;42.896;20.868;2023-12-29T09:36:03;43.13;;;17.13;;
28960;SDS011;16068;42.896;20.868;2023-12-29T09:38:49;26.52;;;16.17;;
28960;SDS011;16068;42.896;20.868;2023-12-29T09:41:36;26.88;;;15.10;;
28960;SDS011;16068;42.896;20.868;2023-12-29T09:44:25;29.48;;;15.93;;
28960;SDS011;16068;42.896;20.868;2023-12-29T09:47:13;28.63;;;16.00;;
28960;SDS011;16068;42.896;20.868;2023-12-29T09:50:02;28.23;;;15.40;;
28960;SDS011;16068;42.896;20.868;2023-12-29T09:52:49;29.10;;;15.05;;
28960;SDS011;16068;42.896;20.868;2023-12-29T09:55:36;25.08;;;15.32;;
28960;SDS011;16068;42.896;20.868;2023-12-29T09:58:23;28.25;;;16.55;;
28960;SDS011;16068;42.896;20.868;2023-12-29T10:01:11;25.98;;;15.48;;
28960;SDS011;16068;42.896;20.868;2023-12-29T10:03:57;30.10;;;16.35;;
28960;SDS011;16068;42.896;20.868;2023-12-29T10:06:44;27.60;;;15.77;;
28960;SDS011;16068;42.896;20.868;2023-12-29T10:09:34;33.30;;;16.85;;
28960;SDS011;16068;42.896;20.868;2023-12-29T10:12:23;35.72;;;19.17;;
28960;SDS011;16068;42.896;20.868;2023-12-29T10:15:47;31.70;;;17.20;;
28960;SDS011;16068;42.896;20.868;2023-12-29T10:24:24;27.30;;;16.17;;
28960;SDS011;16068;42.896;20.868;2023-12-29T10:27:12;28.38;;;16.70;;
28960;SDS011;16068;42.896;20.868;2023-12-29T10:29:58;25.17;;;16.15;;
28960;SDS011;16068;42.896;20.868;2023-12-29T10:32:49;29.77;;;17.20;;
28960;SDS011;16068;42.896;20.868;2023-12-29T10:35:36;42.92;;;19.10;;
28960;SDS011;16068;42.896;20.868;2023-12-29T10:38:31;30.98;;;17.80;;
28960;SDS011;16068;42.896;20.868;2023-12-29T10:41:18;33.33;;;18.23;;
28960;SDS011;16068;42.896;20.868;2023-12-29T10:44:08;41.47;;;19.67;;
28960;SDS011;16068;42.896;20.868;2023-12-29T10:46:54;34.35;;;17.25;;
28960;SDS011;16068;42.896;20.868;2023-12-29T10:49:40;32.10;;;16.75;;
28960;SDS011;16068;42.896;20.868;2023-12-29T10:52:27;28.25;;;16.60;;
28960;SDS011;16068;42.896;20.868;2023-12-29T10:55:14;24.02;;;15.35;;
28960;SDS011;16068;42.896;20.868;2023-12-29T10:58:00;28.95;;;15.52;;
28960;SDS011;16068;42.896;20.868;2023-12-29T11:00:46;30.40;;;16.27;;
28960;SDS011;16068;42.896;20.868;2023-12-29T11:03:33;20.50;;;13.60;;
28960;SDS011;16068;42.896;20.868;2023-12-29T11:06:19;23.13;;;13.88;;
28960;SDS011;16068;42.896;20.868;2023-12-29T11:09:05;27.05;;;13.57;;
28960;SDS011;16068;42.896;20.868;2023-12-29T11:11:51;22.17;;;13.75;;
28960;SDS011;16068;42.896;20.868;2023-12-29T11:14:37;21.90;;;12.85;;
28960;SDS011;16068;42.896;20.868;2023-12-29T11:17:26;32.30;;;14.40;;
28960;SDS011;16068;42.896;20.868;2023-12-29T11:20:12;52.03;;;17.02;;
28960;SDS011;16068;42.896;20.868;2023-12-29T11:23:00;99.75;;;19.25;;
28960;SDS011;16068;42.896;20.868;2023-12-29T11:25:47;45.65;;;15.00;;
28960;SDS011;16068;42.896;20.868;2023-12-29T11:28:34;34.17;;;13.40;;
28960;SDS011;16068;42.896;20.868;2023-12-29T11:31:21;33.70;;;12.48;;
28960;SDS011;16068;42.896;20.868;2023-12-29T11:37:10;60.28;;;31.00;;
28960;SDS011;16068;42.896;20.868;2023-12-29T11:40:19;83.50;;;46.20;;
28960;SDS011;16068;42.896;20.868;2023-12-29T11:43:08;77.43;;;43.42;;
28960;SDS011;16068;42.896;20.868;2023-12-29T11:46:02;192.57;;;116.22;;
28960;SDS011;16068;42.896;20.868;2023-12-29T11:48:57;210.82;;;122.70;;
28960;SDS011;16068;42.896;20.868;2023-12-29T11:51:45;80.28;;;46.55;;
28960;SDS011;16068;42.896;20.868;2023-12-29T11:54:39;383.50;;;48.50;;
28960;SDS011;16068;42.896;20.868;2023-12-29T11:57:31;130.73;;;31.30;;
28960;SDS011;16068;42.896;20.868;2023-12-29T12:00:19;45.08;;;19.58;;
28960;SDS011;16068;42.896;20.868;2023-12-29T12:03:15;56.90;;;19.15;;
28960;SDS011;16068;42.896;20.868;2023-12-29T12:06:11;50.63;;;21.92;;
28960;SDS011;16068;42.896;20.868;2023-12-29T12:12:05;72.63;;;37.80;;
28960;SDS011;16068;42.896;20.868;2023-12-29T12:14:52;57.65;;;31.58;;
28960;SDS011;16068;42.896;20.868;2023-12-29T12:17:38;51.85;;;26.83;;
28960;SDS011;16068;42.896;20.868;2023-12-29T12:20:25;34.20;;;19.23;;
28960;SDS011;16068;42.896;20.868;2023-12-29T12:23:12;39.58;;;15.75;;
28960;SDS011;16068;42.896;20.868;2023-12-29T12:28:54;41.40;;;18.75;;
28960;SDS011;16068;42.896;20.868;2023-12-29T12:31:52;56.67;;;18.88;;
28960;SDS011;16068;42.896;20.868;2023-12-29T12:34:42;33.10;;;18.08;;
28960;SDS011;16068;42.896;20.868;2023-12-29T12:37:28;38.97;;;17.60;;
28960;SDS011;16068;42.896;20.868;2023-12-29T12:40:25;29.33;;;17.63;;
28960;SDS011;16068;42.896;20.868;2023-12-29T12:43:13;37.35;;;17.27;;
28960;SDS011;16068;42.896;20.868;2023-12-29T12:46:06;33.53;;;17.60;;
28960;SDS011;16068;42.896;20.868;2023-12-29T12:48:55;34.53;;;17.27;;
28960;SDS011;16068;42.896;20.868;2023-12-29T12:51:41;44.55;;;19.52;;
28960;SDS011;16068;42.896;20.868;2023-12-29T12:54:28;41.70;;;21.10;;
28960;SDS011;16068;42.896;20.868;2023-12-29T12:57:17;49.67;;;21.27;;
28960;SDS011;16068;42.896;20.868;2023-12-29T13:00:05;43.15;;;23.00;;
28960;SDS011;16068;42.896;20.868;2023-12-29T13:02:51;59.53;;;23.77;;
28960;SDS011;16068;42.896;20.868;2023-12-29T13:05:38;61.40;;;26.80;;
28960;SDS011;16068;42.896;20.868;2023-12-29T13:08:24;74.50;;;28.27;;
28960;SDS011;16068;42.896;20.868;2023-12-29T13:11:22;61.17;;;29.02;;
28960;SDS011;16068;42.896;20.868;2023-12-29T13:14:20;49.15;;;23.25;;
28960;SDS011;16068;42.896;20.868;2023-12-29T13:17:08;45.30;;;19.92;;
28960;SDS011;16068;42.896;20.868;2023-12-29T13:19:58;48.72;;;20.38;;
28960;SDS011;16068;42.896;20.868;2023-12-29T13:22:50;49.88;;;19.00;;
28960;SDS011;16068;42.896;20.868;2023-12-29T13:25:37;43.50;;;20.45;;
28960;SDS011;16068;42.896;20.868;2023-12-29T13:28:25;51.08;;;19.10;;
28960;SDS011;16068;42.896;20.868;2023-12-29T13:31:12;36.90;;;17.13;;
28960;SDS011;16068;42.896;20.868;2023-12-29T13:34:00;33.28;;;15.60;;
28960;SDS011;16068;42.896;20.868;2023-12-29T13:36:51;44.85;;;15.35;;
28960;SDS011;16068;42.896;20.868;2023-12-29T13:40:03;47.88;;;17.92;;
28960;SDS011;16068;42.896;20.868;2023-12-29T13:42:57;36.67;;;14.90;;
28960;SDS011;16068;42.896;20.868;2023-12-29T13:45:45;32.53;;;15.35;;
28960;SDS011;16068;42.896;20.868;2023-12-29T13:48:31;36.88;;;14.63;;
28960;SDS011;16068;42.896;20.868;2023-12-29T13:51:21;30.63;;;15.00;;
28960;SDS011;16068;42.896;20.868;2023-12-29T13:54:09;29.25;;;14.80;;
28960;SDS011;16068;42.896;20.868;2023-12-29T13:56:55;38.95;;;17.30;;
28960;SDS011;16068;42.896;20.868;2023-12-29T13:59:41;59.78;;;21.58;;
28960;SDS011;16068;42.896;20.868;2023-12-29T14:02:31;40.13;;;20.15;;
28960;SDS011;16068;42.896;20.868;2023-12-29T14:05:28;51.63;;;22.25;;
28960;SDS011;16068;42.896;20.868;2023-12-29T14:08:33;48.80;;;18.15;;
28960;SDS011;16068;42.896;20.868;2023-12-29T14:11:20;36.88;;;15.40;;
28960;SDS011;16068;42.896;20.868;2023-12-29T14:14:06;31.67;;;15.57;;
28960;SDS011;16068;42.896;20.868;2023-12-29T14:16:53;30.42;;;15.40;;
28960;SDS011;16068;42.896;20.868;2023-12-29T14:19:39;41.38;;;16.85;;
28960;SDS011;16068;42.896;20.868;2023-12-29T14:22:27;38.83;;;18.10;;
28960;SDS011;16068;42.896;20.868;2023-12-29T14:25:13;179.38;;;105.63;;
28960;SDS011;16068;42.896;20.868;2023-12-29T14:27:59;102.78;;;50.72;;
28960;SDS011;16068;42.896;20.868;2023-12-29T14:30:46;53.53;;;22.95;;
28960;SDS011;16068;42.896;20.868;2023-12-29T14:33:32;50.72;;;22.95;;
28960;SDS011;16068;42.896;20.868;2023-12-29T14:36:19;49.97;;;22.55;;
28960;SDS011;16068;42.896;20.868;2023-12-29T14:39:05;48.40;;;24.27;;
28960;SDS011;16068;42.896;20.868;2023-12-29T14:41:51;90.60;;;31.67;;
28960;SDS011;16068;42.896;20.868;2023-12-29T14:44:38;51.22;;;22.75;;
28960;SDS011;16068;42.896;20.868;2023-12-29T14:47:24;36.13;;;19.00;;
28960;SDS011;16068;42.896;20.868;2023-12-29T14:50:11;45.55;;;19.25;;
28960;SDS011;16068;42.896;20.868;2023-12-29T14:52:58;41.15;;;19.58;;
28960;SDS011;16068;42.896;20.868;2023-12-29T14:55:44;47.45;;;20.00;;
28960;SDS011;16068;42.896;20.868;2023-12-29T14:58:31;39.65;;;19.48;;
28960;SDS011;16068;42.896;20.868;2023-12-29T15:01:18;46.20;;;20.40;;
28960;SDS011;16068;42.896;20.868;2023-12-29T15:04:04;34.53;;;19.70;;
28960;SDS011;16068;42.896;20.868;2023-12-29T15:06:52;43.15;;;20.08;;
28960;SDS011;16068;42.896;20.868;2023-12-29T15:09:39;45.60;;;21.15;;
28960;SDS011;16068;42.896;20.868;2023-12-29T15:12:25;48.22;;;21.88;;
28960;SDS011;16068;42.896;20.868;2023-12-29T15:15:11;41.85;;;20.67;;
28960;SDS011;16068;42.896;20.868;2023-12-29T15:17:58;41.50;;;19.88;;
28960;SDS011;16068;42.896;20.868;2023-12-29T15:21:00;44.10;;;19.90;;
28960;SDS011;16068;42.896;20.868;2023-12-29T15:23:47;35.78;;;18.48;;
28960;SDS011;16068;42.896;20.868;2023-12-29T15:26:33;38.00;;;18.95;;
28960;SDS011;16068;42.896;20.868;2023-12-29T15:29:20;43.40;;;21.58;;
28960;SDS011;16068;42.896;20.868;2023-12-29T15:32:06;39.90;;;19.63;;
28960;SDS011;16068;42.896;20.868;2023-12-29T15:34:52;40.10;;;19.55;;
28960;SDS011;16068;42.896;20.868;2023-12-29T15:37:38;37.65;;;19.98;;
28960;SDS011;16068;42.896;20.868;2023-12-29T15:40:24;46.40;;;20.55;;
28960;SDS011;16068;42.896;20.868;2023-12-29T15:43:11;34.35;;;18.80;;
28960;SDS011;16068;42.896;20.868;2023-12-29T15:45:57;37.97;;;19.40;;
28960;SDS011;16068;42.896;20.868;2023-12-29T15:48:43;43.42;;;18.42;;
28960;SDS011;16068;42.896;20.868;2023-12-29T15:51:32;45.83;;;21.35;;
28960;SDS011;16068;42.896;20.868;2023-12-29T15:54:18;42.45;;;23.52;;
28960;SDS011;16068;42.896;20.868;2023-12-29T15:57:05;48.78;;;27.35;;
28960;SDS011;16068;42.896;20.868;2023-12-29T15:59:53;46.85;;;24.58;;
28960;SDS011;16068;42.896;20.868;2023-12-29T16:02:40;44.80;;;22.65;;
28960;SDS011;16068;42.896;20.868;2023-12-29T16:05:26;40.17;;;21.20;;
28960;SDS011;16068;42.896;20.868;2023-12-29T16:08:12;32.42;;;19.23;;
28960;SDS011;16068;42.896;20.868;2023-12-29T16:10:58;35.28;;;19.80;;
28960;SDS011;16068;42.896;20.868;2023-12-29T16:13:44;40.10;;;20.88;;
28960;SDS011;16068;42.896;20.868;2023-12-29T16:16:31;32.92;;;19.58;;
28960;SDS011;16068;42.896;20.868;2023-12-29T16:19:17;37.00;;;20.77;;
28960;SDS011;16068;42.896;20.868;2023-12-29T16:22:03;41.58;;;19.52;;
28960;SDS011;16068;42.896;20.868;2023-12-29T16:24:49;44.58;;;23.20;;
28960;SDS011;16068;42.896;20.868;2023-12-29T16:27:37;34.67;;;19.42;;